Time;durP1;ratioP1;P1;durP2;ratioP2;P2;SDS_P1;SDS_P2;PMS_P1;PMS_P2;Temp;Humidity;BMP_temperature;BMP_pressure;BME280_temperature;BME280_humidity;BME280_pressure;Samples;Min_cycle;Max_cycle;Signal;HPM_P1;HPM_P2
2022/10/21 00:01:07;;;;;;;7.37;6.20;;;10.00;99.90;;;;;;4927948;29;20639;-74
2022/10/21 00:03:33;;;;;;;6.17;5.30;;;10.00;99.90;;;;;;4944291;29;20205;-74
2022/10/21 00:05:58;;;;;;;8.07;5.50;;;10.00;99.90;;;;;;4939662;29;20265;-74
2022/10/21 00:08:24;;;;;;;6.27;5.60;;;9.90;99.90;;;;;;4947714;29;20198;-74
2022/10/21 00:10:55;;;;;;;6.00;5.40;;;9.90;99.90;;;;;;4934141;29;21516;-75
2022/10/21 00:13:22;;;;;;;7.77;6.17;;;9.90;99.90;;;;;;4943935;29;20674;-74
2022/10/21 00:16:09;;;;;;;7.53;5.90;;;9.90;99.90;;;;;;4933393;29;20201;-74
2022/10/21 00:18:37;;;;;;;6.93;6.23;;;10.00;99.90;;;;;;4936058;29;20216;-73
2022/10/21 00:21:08;;;;;;;5.97;5.20;;;9.90;99.90;;;;;;4938095;29;20246;-74
2022/10/21 00:23:34;;;;;;;9.53;6.03;;;9.90;99.90;;;;;;4947125;29;20203;-77
2022/10/21 00:26:00;;;;;;;8.27;5.53;;;9.90;99.90;;;;;;4932500;29;20200;-77
2022/10/21 00:28:27;;;;;;;8.00;5.47;;;9.90;99.90;;;;;;4946099;29;20195;-76
2022/10/21 00:30:52;;;;;;;6.70;6.07;;;10.00;99.90;;;;;;4943788;29;20194;-76
2022/10/21 00:33:18;;;;;;;8.70;5.80;;;10.00;99.90;;;;;;4946574;29;20202;-75
2022/10/21 00:35:52;;;;;;;7.70;5.73;;;10.00;99.90;;;;;;4935817;29;20424;-78
2022/10/21 00:38:19;;;;;;;5.83;5.33;;;10.00;99.90;;;;;;4942110;29;20222;-77
2022/10/21 00:40:44;;;;;;;7.37;5.60;;;9.90;99.90;;;;;;4937855;29;20235;-78
2022/10/21 00:43:11;;;;;;;7.53;5.77;;;10.00;99.90;;;;;;4946523;29;20237;-76
2022/10/21 00:45:37;;;;;;;6.07;5.37;;;10.00;99.90;;;;;;4942034;29;20210;-75
2022/10/21 00:48:08;;;;;;;6.40;5.57;;;10.00;99.90;;;;;;4946735;29;20224;-76
2022/10/21 00:50:38;;;;;;;6.67;5.43;;;10.00;99.90;;;;;;4937073;29;20696;-77
2022/10/21 00:53:08;;;;;;;8.27;6.03;;;10.00;99.90;;;;;;4938625;28;20306;-77
2022/10/21 00:55:38;;;;;;;7.97;5.30;;;10.00;99.90;;;;;;4938367;29;20203;-75
2022/10/21 00:58:06;;;;;;;6.00;4.97;;;10.00;99.90;;;;;;4945579;29;20232;-76
2022/10/21 01:00:31;;;;;;;8.43;5.97;;;10.00;99.90;;;;;;4937260;29;20211;-78
2022/10/21 01:02:57;;;;;;;7.87;5.90;;;10.00;99.90;;;;;;4935940;29;20205;-75
2022/10/21 01:05:23;;;;;;;8.80;6.10;;;10.00;99.90;;;;;;4936621;29;20195;-79
2022/10/21 01:07:49;;;;;;;10.53;6.10;;;10.00;99.90;;;;;;4942334;29;20718;-74
2022/10/21 01:10:16;;;;;;;6.87;6.17;;;10.00;99.90;;;;;;4938391;29;20714;-76
2022/10/21 01:12:59;;;;;;;7.83;5.67;;;10.00;99.90;;;;;;4935696;29;20210;-76
2022/10/21 01:15:34;;;;;;;8.43;5.70;;;10.00;99.90;;;;;;4931909;29;20285;-77
2022/10/21 01:18:21;;;;;;;7.43;6.20;;;10.00;99.90;;;;;;4943422;29;21057;-78
2022/10/21 01:21:07;;;;;;;7.17;6.50;;;9.90;99.90;;;;;;4935622;29;20554;-78
2022/10/21 01:24:07;;;;;;;6.30;5.70;;;9.90;99.90;;;;;;4946606;29;20197;-77
2022/10/21 01:26:52;;;;;;;10.87;6.87;;;9.90;99.90;;;;;;4942220;29;20224;-75
2022/10/21 01:29:49;;;;;;;7.23;5.87;;;9.90;99.90;;;;;;4934952;29;20192;-76
2022/10/21 01:32:42;;;;;;;9.33;5.63;;;9.90;99.90;;;;;;4934902;29;20204;-76
2022/10/21 01:35:30;;;;;;;8.73;6.93;;;9.90;99.90;;;;;;4945619;29;20211;-76
2022/10/21 01:38:18;;;;;;;8.93;5.73;;;9.90;99.90;;;;;;4935935;29;20231;-76
2022/10/21 01:41:24;;;;;;;6.17;5.57;;;9.90;99.90;;;;;;4927201;29;20322;-71
2022/10/21 01:44:03;;;;;;;7.93;7.13;;;9.90;99.90;;;;;;4938503;29;20215;-73
2022/10/21 01:46:56;;;;;;;8.50;6.30;;;9.90;99.90;;;;;;4942211;29;20241;-73
2022/10/21 01:49:44;;;;;;;7.77;7.03;;;9.90;99.90;;;;;;4942809;29;20211;-73
2022/10/21 01:52:11;;;;;;;6.93;6.23;;;10.00;99.90;;;;;;4942007;29;20203;-73
2022/10/21 01:54:44;;;;;;;9.47;7.07;;;10.00;99.90;;;;;;4934629;29;20216;-76
2022/10/21 01:57:14;;;;;;;6.70;6.10;;;10.00;99.90;;;;;;4928614;29;20622;-76
2022/10/21 01:59:42;;;;;;;9.93;6.20;;;10.00;99.90;;;;;;4941349;29;20200;-76
2022/10/21 02:02:09;;;;;;;8.50;6.77;;;10.00;99.90;;;;;;4934442;29;20210;-76
2022/10/21 02:04:36;;;;;;;8.10;7.23;;;10.00;99.90;;;;;;4937860;29;20203;-74
2022/10/21 02:07:02;;;;;;;8.20;7.03;;;10.00;99.90;;;;;;4937244;29;20219;-78
2022/10/21 02:09:27;;;;;;;7.30;5.87;;;10.10;99.90;;;;;;4938025;29;20188;-75
2022/10/21 02:11:57;;;;;;;7.67;6.70;;;10.10;99.90;;;;;;4941700;28;20212;-78
2022/10/21 02:14:29;;;;;;;7.70;6.27;;;10.10;99.90;;;;;;4935819;29;20294;-76
2022/10/21 02:16:56;;;;;;;8.07;6.90;;;10.10;99.90;;;;;;4941261;29;20218;-77
2022/10/21 02:19:22;;;;;;;6.83;6.20;;;10.10;99.90;;;;;;4936233;29;20241;-78
2022/10/21 02:21:50;;;;;;;8.33;6.77;;;10.10;99.90;;;;;;4941207;29;20208;-77
2022/10/21 02:24:42;;;;;;;7.50;6.63;;;10.10;99.90;;;;;;4936298;29;20199;-77
2022/10/21 02:27:07;;;;;;;8.93;6.53;;;10.10;99.90;;;;;;4920396;29;20226;-76
2022/10/21 02:29:37;;;;;;;8.53;6.50;;;10.10;99.90;;;;;;4942059;29;20294;-77
2022/10/21 02:32:34;;;;;;;7.70;6.90;;;10.00;99.90;;;;;;4939383;29;20199;-77
2022/10/21 02:35:37;;;;;;;7.77;5.80;;;10.00;99.90;;;;;;4944541;29;20836;-77
2022/10/21 02:38:21;;;;;;;7.67;6.87;;;10.00;99.90;;;;;;4931003;29;20309;-79
2022/10/21 02:41:12;;;;;;;8.20;6.90;;;10.10;99.90;;;;;;4941805;29;20194;-74
2022/10/21 02:43:47;;;;;;;6.93;6.23;;;10.10;99.90;;;;;;4935827;29;20202;-74
2022/10/21 02:46:13;;;;;;;6.67;6.03;;;10.10;99.90;;;;;;4939216;29;20689;-75
2022/10/21 02:48:42;;;;;;;7.47;6.77;;;10.10;99.90;;;;;;4937182;29;20195;-74
2022/10/21 02:51:08;;;;;;;6.80;6.20;;;10.10;99.90;;;;;;4933282;29;20220;-76
2022/10/21 02:53:35;;;;;;;6.93;6.10;;;10.10;99.90;;;;;;4946844;28;20243;-73
2022/10/21 02:56:00;;;;;;;7.73;6.77;;;10.10;99.90;;;;;;4940348;29;20199;-74
2022/10/21 02:58:26;;;;;;;8.20;7.37;;;10.10;99.90;;;;;;4950412;29;20294;-74
2022/10/21 03:00:51;;;;;;;7.37;6.47;;;10.10;99.90;;;;;;4944203;29;20206;-74
2022/10/21 03:03:17;;;;;;;7.00;6.30;;;10.10;99.90;;;;;;4949415;29;20239;-73
2022/10/21 03:05:43;;;;;;;7.63;6.93;;;10.10;99.90;;;;;;4938992;29;20780;-73
2022/10/21 03:08:08;;;;;;;7.00;6.40;;;10.10;99.90;;;;;;4937135;29;20975;-73
2022/10/21 03:10:34;;;;;;;7.93;7.13;;;10.10;99.90;;;;;;4940850;29;20555;-73
2022/10/21 03:12:59;;;;;;;9.47;7.20;;;10.10;99.90;;;;;;4940904;29;20227;-74
2022/10/21 03:15:25;;;;;;;8.77;7.30;;;10.10;99.90;;;;;;4934829;29;20186;-73
2022/10/21 03:17:50;;;;;;;7.17;6.37;;;10.10;99.90;;;;;;4941231;29;20212;-74
2022/10/21 03:20:16;;;;;;;8.27;7.20;;;10.10;99.90;;;;;;4945650;29;21011;-80
2022/10/21 03:22:42;;;;;;;7.07;6.37;;;10.10;99.90;;;;;;4939916;29;20249;-80
2022/10/21 03:25:08;;;;;;;7.93;6.77;;;10.10;99.90;;;;;;4939025;28;20202;-73
2022/10/21 03:27:34;;;;;;;7.10;6.27;;;10.10;99.90;;;;;;4944220;29;20282;-73
2022/10/21 03:29:59;;;;;;;7.80;7.07;;;10.10;99.90;;;;;;4937392;29;20650;-73
2022/10/21 03:32:25;;;;;;;8.63;7.80;;;10.10;99.90;;;;;;4935287;29;20203;-73
2022/10/21 03:34:50;;;;;;;8.30;7.40;;;10.10;99.90;;;;;;4938198;29;20203;-73
2022/10/21 03:37:16;;;;;;;8.10;7.10;;;10.10;99.90;;;;;;4941296;29;20389;-74
2022/10/21 03:39:41;;;;;;;9.83;7.83;;;10.10;99.90;;;;;;4938501;29;20194;-70
2022/10/21 03:42:07;;;;;;;8.90;6.77;;;10.20;99.90;;;;;;4944334;29;20231;-74
2022/10/21 03:44:32;;;;;;;8.33;7.20;;;10.20;99.90;;;;;;4938178;29;20203;-74
2022/10/21 03:46:58;;;;;;;12.93;7.20;;;10.10;99.90;;;;;;4944748;29;20286;-74
2022/10/21 03:49:23;;;;;;;8.50;7.47;;;10.20;99.90;;;;;;4947483;29;20202;-73
2022/10/21 03:51:49;;;;;;;8.50;7.37;;;10.20;99.90;;;;;;4945804;29;20203;-74
2022/10/21 03:54:15;;;;;;;7.57;6.87;;;10.20;99.90;;;;;;4937380;28;20217;-73
2022/10/21 03:56:41;;;;;;;8.83;7.67;;;10.30;99.90;;;;;;4938014;29;20221;-74
2022/10/21 03:59:06;;;;;;;8.73;7.63;;;10.30;99.90;;;;;;4936077;29;20196;-74
2022/10/21 04:01:32;;;;;;;7.83;7.03;;;10.30;99.90;;;;;;4935353;29;20206;-74
2022/10/21 04:03:58;;;;;;;7.97;7.17;;;10.30;99.90;;;;;;4947012;29;20258;-76
2022/10/21 04:06:24;;;;;;;9.80;7.63;;;10.30;99.90;;;;;;4936951;29;20777;-76
2022/10/21 04:08:49;;;;;;;12.87;9.00;;;10.30;99.90;;;;;;4945686;29;20222;-75
2022/10/21 04:11:15;;;;;;;9.63;8.53;;;10.30;99.90;;;;;;4946684;29;20281;-74
2022/10/21 04:13:40;;;;;;;8.87;7.90;;;10.30;99.90;;;;;;4936326;29;21206;-75
2022/10/21 04:16:13;;;;;;;8.87;7.80;;;10.30;99.90;;;;;;4937674;29;20172;-75
2022/10/21 04:18:39;;;;;;;9.30;7.73;;;10.30;99.90;;;;;;4936164;29;20746;-75
2022/10/21 04:21:04;;;;;;;9.07;7.57;;;10.30;99.90;;;;;;4918983;29;20267;-73
2022/10/21 04:23:30;;;;;;;9.20;7.80;;;10.30;99.90;;;;;;4942829;29;20646;-76
2022/10/21 04:25:55;;;;;;;9.63;7.73;;;10.30;99.90;;;;;;4947049;29;20274;-75
2022/10/21 04:28:21;;;;;;;8.77;7.87;;;10.30;99.90;;;;;;4945500;29;20227;-76
2022/10/21 04:30:49;;;;;;;11.70;9.33;;;10.40;99.90;;;;;;4937635;29;20669;-76
2022/10/21 04:33:14;;;;;;;11.23;8.07;;;10.30;99.90;;;;;;4942522;29;20204;-76
2022/10/21 04:35:40;;;;;;;11.43;8.80;;;10.30;99.90;;;;;;4928613;29;20600;-76
2022/10/21 04:38:05;;;;;;;13.73;8.60;;;10.30;99.90;;;;;;4941208;29;20245;-76
2022/10/21 04:40:31;;;;;;;10.70;8.57;;;10.30;99.90;;;;;;4937295;29;20199;-76
2022/10/21 04:42:57;;;;;;;8.83;7.93;;;10.30;99.90;;;;;;4935145;29;20217;-76
2022/10/21 04:45:22;;;;;;;9.57;8.53;;;10.30;99.90;;;;;;4939148;29;20187;-77
2022/10/21 04:47:48;;;;;;;10.17;8.30;;;10.20;99.90;;;;;;4941821;29;20584;-77
2022/10/21 04:50:13;;;;;;;9.80;7.83;;;10.20;99.90;;;;;;4946263;29;20196;-77
2022/10/21 04:52:38;;;;;;;10.33;8.30;;;10.20;99.90;;;;;;4928433;29;20214;-76
2022/10/21 04:55:04;;;;;;;9.63;8.23;;;10.20;99.90;;;;;;4937387;29;20280;-77
2022/10/21 04:57:30;;;;;;;9.53;7.50;;;10.20;99.90;;;;;;4941451;29;20191;-77
2022/10/21 04:59:55;;;;;;;8.73;7.87;;;10.20;99.90;;;;;;4942359;29;20191;-77
2022/10/21 05:02:21;;;;;;;8.60;7.80;;;10.30;99.90;;;;;;4937876;29;20204;-77
2022/10/21 05:04:47;;;;;;;9.57;8.37;;;10.20;99.90;;;;;;4942690;29;20243;-78
2022/10/21 05:07:12;;;;;;;11.43;8.63;;;10.30;99.90;;;;;;4939453;29;20218;-77
2022/10/21 05:09:38;;;;;;;11.27;8.30;;;10.30;99.90;;;;;;4942910;29;20274;-77
2022/10/21 05:12:03;;;;;;;10.13;7.97;;;10.30;99.90;;;;;;4939899;29;20215;-78
2022/10/21 05:14:29;;;;;;;8.73;7.83;;;10.30;99.90;;;;;;4944974;29;20191;-77
2022/10/21 05:16:54;;;;;;;9.23;7.87;;;10.30;99.90;;;;;;4932625;29;20211;-77
2022/10/21 05:19:20;;;;;;;10.03;8.17;;;10.30;99.90;;;;;;4935717;29;20198;-78
2022/10/21 05:21:45;;;;;;;8.43;7.63;;;10.30;99.90;;;;;;4940917;29;20202;-77
2022/10/21 05:24:12;;;;;;;11.13;9.20;;;10.30;99.90;;;;;;4942590;29;21101;-77
2022/10/21 05:26:38;;;;;;;9.10;8.17;;;10.20;99.90;;;;;;4936652;29;20721;-76
2022/10/21 05:29:03;;;;;;;9.93;8.73;;;10.20;99.90;;;;;;4946600;29;20206;-77
2022/10/21 05:31:29;;;;;;;11.57;9.57;;;10.20;99.90;;;;;;4944732;29;20199;-79
2022/10/21 05:33:55;;;;;;;10.00;9.00;;;10.20;99.90;;;;;;4943263;29;20262;-79
2022/10/21 05:36:20;;;;;;;10.13;8.73;;;10.20;99.90;;;;;;4945137;29;20195;-76
2022/10/21 05:38:46;;;;;;;9.97;9.07;;;10.30;99.90;;;;;;4942160;29;20191;-77
2022/10/21 05:41:11;;;;;;;79.93;33.03;;;10.20;99.90;;;;;;4945562;29;20661;-78
2022/10/21 05:43:37;;;;;;;26.03;15.50;;;10.30;99.90;;;;;;4944140;29;20200;-78
2022/10/21 05:46:03;;;;;;;14.50;10.53;;;10.30;99.90;;;;;;4941194;29;20219;-73
2022/10/21 05:48:29;;;;;;;11.63;9.70;;;10.30;99.90;;;;;;4936850;29;21012;-74
2022/10/21 05:50:55;;;;;;;11.07;8.87;;;10.30;99.90;;;;;;4940476;29;20196;-75
2022/10/21 05:53:24;;;;;;;10.73;9.23;;;10.40;99.90;;;;;;4936480;29;20208;-77
2022/10/21 05:56:06;;;;;;;10.50;9.03;;;10.40;99.90;;;;;;4939017;29;20187;-80
2022/10/21 05:58:32;;;;;;;11.97;10.03;;;10.40;99.90;;;;;;4938789;29;20663;-76
2022/10/21 06:00:59;;;;;;;10.27;8.20;;;10.40;99.90;;;;;;4935831;29;20192;-75
2022/10/21 06:03:30;;;;;;;10.80;8.60;;;10.50;99.90;;;;;;4935496;29;20191;-76
2022/10/21 06:05:57;;;;;;;8.53;7.73;;;10.50;99.90;;;;;;4934530;29;20197;-80
2022/10/21 06:08:22;;;;;;;10.83;8.30;;;10.50;99.90;;;;;;4937030;29;20221;-80
2022/10/21 06:10:48;;;;;;;13.80;10.53;;;10.60;99.90;;;;;;4941529;29;20350;-80
2022/10/21 06:13:13;;;;;;;16.17;12.00;;;10.60;99.90;;;;;;4930337;29;20624;-75
2022/10/21 06:15:38;;;;;;;13.57;10.13;;;10.60;99.90;;;;;;4939832;29;20198;-74
2022/10/21 06:18:04;;;;;;;11.13;9.00;;;10.70;99.90;;;;;;4932094;28;20259;-74
2022/10/21 06:20:29;;;;;;;12.60;9.90;;;10.70;99.90;;;;;;4938986;29;20611;-77
2022/10/21 06:22:57;;;;;;;10.77;8.57;;;10.70;99.90;;;;;;4938542;29;20663;-79
2022/10/21 06:25:22;;;;;;;11.63;9.23;;;10.70;99.90;;;;;;4936405;29;20201;-78
2022/10/21 06:27:48;;;;;;;10.70;9.13;;;10.80;99.90;;;;;;4935542;29;20254;-75
2022/10/21 06:30:13;;;;;;;9.93;8.70;;;10.80;99.90;;;;;;4942060;29;20704;-77
2022/10/21 06:32:39;;;;;;;15.07;11.10;;;10.80;99.90;;;;;;4933683;29;20192;-75
2022/10/21 06:35:05;;;;;;;10.30;9.20;;;10.90;99.90;;;;;;4934988;29;20659;-75
2022/10/21 06:37:30;;;;;;;13.03;8.90;;;10.80;99.90;;;;;;4933925;29;20283;-73
2022/10/21 06:39:55;;;;;;;14.37;9.57;;;10.80;99.90;;;;;;4940861;29;20231;-74
2022/10/21 06:42:21;;;;;;;11.10;9.03;;;10.80;99.90;;;;;;4930449;29;20185;-74
2022/10/21 06:44:46;;;;;;;13.00;10.70;;;10.90;99.90;;;;;;4941313;29;20269;-72
2022/10/21 06:47:12;;;;;;;11.20;9.33;;;10.90;99.90;;;;;;4936287;29;20222;-72
2022/10/21 06:49:37;;;;;;;16.00;10.57;;;11.00;99.90;;;;;;4937863;29;20609;-70
2022/10/21 06:52:03;;;;;;;10.87;9.77;;;11.10;99.90;;;;;;4917729;29;20272;-70
2022/10/21 06:54:29;;;;;;;11.00;9.53;;;11.20;99.90;;;;;;4935495;29;20203;-70
2022/10/21 06:56:54;;;;;;;11.10;10.00;;;11.30;99.90;;;;;;4935874;29;20201;-70
2022/10/21 06:59:20;;;;;;;14.23;10.10;;;11.40;99.90;;;;;;4928634;29;20276;-69
2022/10/21 07:01:45;;;;;;;10.47;9.37;;;11.40;99.90;;;;;;4939882;29;20560;-76
2022/10/21 07:04:11;;;;;;;11.63;9.93;;;11.40;99.90;;;;;;4937362;29;20201;-74
2022/10/21 07:06:37;;;;;;;12.77;9.27;;;11.40;99.90;;;;;;4943087;29;20220;-76
2022/10/21 07:09:04;;;;;;;9.03;7.67;;;11.50;99.90;;;;;;4946400;29;20207;-78
2022/10/21 07:11:30;;;;;;;11.20;9.87;;;11.60;99.90;;;;;;4938714;29;20202;-68
2022/10/21 07:13:55;;;;;;;10.57;8.57;;;11.60;99.90;;;;;;4930694;29;20196;-68
2022/10/21 07:16:30;;;;;;;9.57;8.33;;;11.60;99.90;;;;;;4934414;29;20247;-67
2022/10/21 07:18:56;;;;;;;13.30;9.47;;;11.70;99.90;;;;;;4928861;29;20212;-71
2022/10/21 07:21:24;;;;;;;11.40;8.60;;;11.70;99.90;;;;;;4946156;29;20594;-69
2022/10/21 07:23:51;;;;;;;11.93;8.70;;;11.70;99.90;;;;;;4937992;29;20209;-71
2022/10/21 07:26:19;;;;;;;11.00;8.63;;;11.80;99.90;;;;;;4942146;29;20231;-71
2022/10/21 07:28:46;;;;;;;10.70;9.20;;;11.70;99.90;;;;;;4943139;29;20212;-69
2022/10/21 07:31:20;;;;;;;12.17;9.07;;;11.70;99.90;;;;;;4947352;29;20189;-70
2022/10/21 07:33:46;;;;;;;9.97;8.97;;;11.80;99.90;;;;;;4941790;29;20267;-70
2022/10/21 07:36:15;;;;;;;9.77;8.77;;;11.80;99.90;;;;;;4939379;29;20200;-70
2022/10/21 07:38:45;;;;;;;15.47;10.57;;;11.80;99.90;;;;;;4940446;29;20596;-70
2022/10/21 07:41:20;;;;;;;13.63;10.47;;;11.80;99.90;;;;;;4939016;29;20292;-68
2022/10/21 07:43:46;;;;;;;12.20;9.60;;;11.80;99.90;;;;;;4919425;29;20249;-69
2022/10/21 07:46:12;;;;;;;10.20;9.10;;;11.80;99.90;;;;;;4946601;29;20626;-69
2022/10/21 07:48:37;;;;;;;10.13;9.07;;;11.80;99.90;;;;;;4939694;29;20706;-70
2022/10/21 07:51:09;;;;;;;10.40;9.03;;;11.80;99.90;;;;;;4937352;29;20197;-74
2022/10/21 07:53:35;;;;;;;13.83;9.00;;;11.90;99.90;;;;;;4945431;28;20319;-74
2022/10/21 07:56:10;;;;;;;11.67;9.30;;;11.90;99.90;;;;;;4939072;29;20567;-74
2022/10/21 07:58:36;;;;;;;12.97;9.83;;;11.90;99.90;;;;;;4943207;29;20211;-74
2022/10/21 08:01:03;;;;;;;10.80;9.70;;;12.00;99.90;;;;;;4930785;29;20888;-69
2022/10/21 08:03:29;;;;;;;9.83;8.47;;;12.10;99.90;;;;;;4929959;29;20206;-81
2022/10/21 08:05:55;;;;;;;12.73;9.93;;;12.20;99.90;;;;;;4930362;29;20176;-80
2022/10/21 08:08:21;;;;;;;12.30;9.30;;;12.30;99.90;;;;;;4943492;29;20248;-75
2022/10/21 08:10:48;;;;;;;12.30;10.03;;;12.40;99.90;;;;;;4933532;29;20189;-73
2022/10/21 08:13:14;;;;;;;11.97;9.10;;;12.40;99.90;;;;;;4929265;29;20206;-73
2022/10/21 08:15:43;;;;;;;9.20;8.37;;;12.40;99.90;;;;;;4930840;29;20212;-71
2022/10/21 08:18:09;;;;;;;11.17;8.83;;;12.40;99.90;;;;;;4927819;29;20214;-72
2022/10/21 08:20:38;;;;;;;11.87;9.67;;;12.50;99.90;;;;;;4931864;29;20277;-73
2022/10/21 08:23:04;;;;;;;11.73;10.13;;;12.50;99.90;;;;;;4933655;29;20206;-72
2022/10/21 08:25:30;;;;;;;12.17;9.27;;;12.50;99.90;;;;;;4941210;29;20218;-71
2022/10/21 08:27:55;;;;;;;12.73;8.63;;;12.50;99.90;;;;;;4932123;29;20249;-72
2022/10/21 08:30:20;;;;;;;11.20;9.60;;;12.50;99.90;;;;;;4933183;29;20193;-72
2022/10/21 08:32:46;;;;;;;12.57;9.00;;;12.60;99.90;;;;;;4932678;29;20203;-72
2022/10/21 08:35:11;;;;;;;11.23;9.83;;;12.60;99.90;;;;;;4933395;29;20208;-73
2022/10/21 08:37:37;;;;;;;12.60;10.13;;;12.70;99.90;;;;;;4952086;29;20331;-76
2022/10/21 08:40:03;;;;;;;13.80;9.90;;;12.70;99.90;;;;;;4952147;29;20198;-76
2022/10/21 08:42:28;;;;;;;13.70;9.80;;;12.80;99.90;;;;;;4948841;29;20531;-75
2022/10/21 08:45:01;;;;;;;13.80;9.93;;;12.90;99.90;;;;;;4952063;29;20203;-78
2022/10/21 08:47:44;;;;;;;11.07;9.00;;;12.90;99.90;;;;;;4949526;29;20288;-79
2022/10/21 08:50:21;;;;;;;12.07;9.30;;;13.10;99.90;;;;;;4940190;29;20198;-74
2022/10/21 08:53:10;;;;;;;10.23;8.63;;;13.20;99.90;;;;;;4943427;28;20491;-78
2022/10/21 08:55:41;;;;;;;10.53;9.00;;;13.40;99.90;;;;;;4941606;29;20265;-74
2022/10/21 08:58:14;;;;;;;9.73;8.50;;;13.50;99.90;;;;;;4940052;29;20654;-73
2022/10/21 09:00:47;;;;;;;10.90;8.90;;;13.70;99.90;;;;;;4941448;29;20281;-77
2022/10/21 09:03:34;;;;;;;9.57;8.67;;;13.90;99.90;;;;;;4939403;29;20723;-74
2022/10/21 09:06:14;;;;;;;9.80;8.80;;;14.00;99.90;;;;;;4945183;29;20198;-76
2022/10/21 09:08:47;;;;;;;10.53;8.73;;;14.10;99.90;;;;;;4933632;29;20226;-75
2022/10/21 09:11:33;;;;;;;9.70;8.40;;;14.10;99.90;;;;;;4936648;29;20665;-73
2022/10/21 09:14:39;;;;;;;10.53;9.43;;;14.10;99.90;;;;;;4934369;29;20202;-72
2022/10/21 09:17:41;;;;;;;10.37;9.20;;;14.10;99.90;;;;;;4937407;29;20198;-74
2022/10/21 09:20:32;;;;;;;11.37;9.53;;;14.10;99.90;;;;;;4935731;29;20202;-73
2022/10/21 09:23:42;;;;;;;9.43;8.40;;;14.10;99.90;;;;;;4933140;28;20234;-74
2022/10/21 09:26:34;;;;;;;9.77;8.60;;;14.20;99.90;;;;;;4884147;29;20197;-73
2022/10/21 09:29:33;;;;;;;10.13;8.70;;;14.30;99.90;;;;;;4935800;29;20244;-73
2022/10/21 09:32:09;;;;;;;9.63;8.70;;;14.50;99.90;;;;;;4941455;29;20190;-72
2022/10/21 09:34:49;;;;;;;17.47;9.33;;;14.60;99.90;;;;;;4943827;29;20236;-72
2022/10/21 09:37:26;;;;;;;10.60;9.10;;;14.50;99.90;;;;;;4928145;29;20193;-73
2022/10/21 09:40:00;;;;;;;11.10;8.27;;;14.50;99.90;;;;;;4939893;29;20202;-72
2022/10/21 09:42:26;;;;;;;10.07;9.07;;;14.50;99.90;;;;;;4935935;29;20298;-70
2022/10/21 09:44:51;;;;;;;9.20;8.37;;;14.50;99.90;;;;;;4941866;29;20292;-72
2022/10/21 09:47:21;;;;;;;10.90;9.00;;;14.50;99.90;;;;;;4937822;29;20282;-75
2022/10/21 09:49:55;;;;;;;8.90;8.10;;;14.60;99.90;;;;;;4934600;29;20206;-72
2022/10/21 09:52:23;;;;;;;10.57;9.40;;;14.60;99.90;;;;;;4933717;29;20190;-72
2022/10/21 09:54:49;;;;;;;12.23;9.60;;;14.70;99.90;;;;;;4933402;29;20214;-73
2022/10/21 09:57:25;;;;;;;9.90;8.90;;;14.90;99.90;;;;;;4937959;29;20558;-72
2022/10/21 09:59:57;;;;;;;10.63;8.77;;;15.10;99.90;;;;;;4935114;29;20205;-74
2022/10/21 10:02:35;;;;;;;10.83;9.17;;;15.10;99.90;;;;;;4933730;29;20195;-75
2022/10/21 10:05:04;;;;;;;15.37;12.57;;;15.30;99.90;;;;;;4927736;29;20283;-79
2022/10/21 10:07:34;;;;;;;9.13;8.23;;;15.50;99.90;;;;;;4934634;29;20212;-77
2022/10/21 10:10:00;;;;;;;9.67;8.77;;;15.70;99.90;;;;;;4936679;29;20194;-74
2022/10/21 10:12:28;;;;;;;9.87;8.87;;;15.90;99.90;;;;;;4938489;29;20500;-79
2022/10/21 10:14:54;;;;;;;9.87;8.87;;;16.00;99.90;;;;;;4936352;29;20195;-75
2022/10/21 10:17:22;;;;;;;9.60;8.60;;;16.10;99.90;;;;;;4934975;29;20653;-75
2022/10/21 10:20:03;;;;;;;7.90;7.00;;;16.10;99.90;;;;;;4937389;29;20233;-75
2022/10/21 10:23:07;;;;;;;8.73;7.83;;;16.30;99.90;;;;;;4937094;29;20657;-70
2022/10/21 10:25:36;;;;;;;9.67;8.67;;;16.40;99.90;;;;;;4913835;29;20305;-74
2022/10/21 10:28:07;;;;;;;12.73;8.43;;;16.40;99.90;;;;;;4933093;29;20214;-74
2022/10/21 10:30:46;;;;;;;9.60;8.40;;;16.50;99.90;;;;;;4932227;29;20246;-74
2022/10/21 10:33:17;;;;;;;9.07;8.17;;;16.50;99.90;;;;;;4934128;29;21037;-73
2022/10/21 10:36:00;;;;;;;9.23;8.10;;;16.50;99.90;;;;;;4937963;29;20629;-75
2022/10/21 10:38:31;;;;;;;10.70;8.10;;;16.50;99.90;;;;;;4933148;29;20297;-75
2022/10/21 10:41:07;;;;;;;11.87;8.17;;;16.40;99.90;;;;;;4941343;29;20285;-74
2022/10/21 10:43:36;;;;;;;9.30;8.30;;;16.40;99.90;;;;;;4935113;29;20312;-74
2022/10/21 10:46:05;;;;;;;10.20;8.33;;;16.50;99.90;;;;;;4943588;29;20749;-75
2022/10/21 10:48:44;;;;;;;10.53;8.47;;;16.60;99.90;;;;;;4933111;29;20226;-74
2022/10/21 10:51:29;;;;;;;9.90;7.93;;;16.80;99.90;;;;;;4939484;29;20187;-74
2022/10/21 10:54:00;;;;;;;9.57;7.33;;;17.00;99.90;;;;;;4933421;29;20229;-75
2022/10/21 10:56:38;;;;;;;9.70;7.03;;;17.10;99.90;;;;;;4935661;29;20202;-83
2022/10/21 10:59:23;;;;;;;8.80;7.73;;;17.20;99.90;;;;;;4930347;29;20214;-80
2022/10/21 11:01:59;;;;;;;9.27;8.03;;;17.20;99.90;;;;;;4937554;29;20743;-77
2022/10/21 11:04:31;;;;;;;8.47;7.67;;;17.30;99.90;;;;;;4934216;29;20282;-81
2022/10/21 11:07:09;;;;;;;7.80;7.10;;;17.50;99.90;;;;;;4944547;29;20571;-77
2022/10/21 11:09:35;;;;;;;10.03;6.77;;;17.80;99.90;;;;;;4937436;29;20760;-80
2022/10/21 11:12:09;;;;;;;9.27;8.37;;;18.00;99.90;;;;;;4942054;28;20187;-78
2022/10/21 11:14:35;;;;;;;9.70;7.77;;;18.20;99.90;;;;;;4936335;29;20347;-84
2022/10/21 11:17:11;;;;;;;8.60;6.63;;;18.40;99.90;;;;;;4939805;29;20634;-80
2022/10/21 11:19:55;;;;;;;10.90;8.47;;;18.50;99.90;;;;;;4937331;29;20213;-81
2022/10/21 11:22:40;;;;;;;8.37;7.53;;;18.40;99.90;;;;;;4939316;29;20729;-80
2022/10/21 11:25:24;;;;;;;11.70;7.53;;;18.30;99.90;;;;;;4936649;29;20212;-80
2022/10/21 11:28:08;;;;;;;8.80;7.97;;;18.20;99.90;;;;;;4942236;29;20306;-74
2022/10/21 11:30:53;;;;;;;8.10;7.33;;;18.00;99.90;;;;;;4940296;29;20199;-76
2022/10/21 11:33:43;;;;;;;8.60;7.03;;;17.90;99.90;;;;;;4937633;29;20225;-77
2022/10/21 11:36:33;;;;;;;9.07;8.03;;;17.80;99.90;;;;;;4938360;29;20385;-79
2022/10/21 11:39:30;;;;;;;9.57;7.50;;;17.80;99.90;;;;;;4934656;29;20666;-77
2022/10/21 11:42:25;;;;;;;8.73;7.77;;;17.80;99.90;;;;;;4937794;29;20709;-80
2022/10/21 11:45:29;;;;;;;9.50;8.17;;;17.80;99.90;;;;;;4936206;28;20210;-77
2022/10/21 11:48:07;;;;;;;10.43;7.53;;;17.70;99.90;;;;;;4937932;29;20588;-76
2022/10/21 11:51:10;;;;;;;10.13;7.93;;;17.70;99.90;;;;;;4939064;29;20281;-77
2022/10/21 11:53:53;;;;;;;7.93;7.23;;;17.50;99.90;;;;;;4942831;28;20284;-79
2022/10/21 11:56:31;;;;;;;12.23;8.20;;;17.40;99.90;;;;;;4932503;29;20551;-78
2022/10/21 11:59:29;;;;;;;8.60;7.67;;;17.40;99.90;;;;;;4938496;29;20201;-78
2022/10/21 12:02:22;;;;;;;8.47;7.63;;;17.50;99.90;;;;;;4946741;29;20206;-76
2022/10/21 12:05:04;;;;;;;10.60;8.07;;;17.80;99.90;;;;;;4931706;29;20209;-73
2022/10/21 12:07:54;;;;;;;8.53;7.70;;;18.10;99.90;;;;;;4946918;29;20210;-79
2022/10/21 12:10:37;;;;;;;8.53;7.67;;;18.50;99.90;;;;;;4939490;29;20207;-71
2022/10/21 12:13:10;;;;;;;10.87;8.40;;;18.70;99.90;;;;;;4937114;29;20226;-71
2022/10/21 12:15:45;;;;;;;8.47;7.57;;;18.90;99.90;;;;;;4946714;29;20246;-71
2022/10/21 12:18:15;;;;;;;8.77;7.87;;;19.10;99.90;;;;;;4936657;29;20194;-70
2022/10/21 12:20:42;;;;;;;9.57;8.40;;;19.20;99.90;;;;;;4946946;29;20220;-70
2022/10/21 12:23:12;;;;;;;8.00;7.17;;;19.30;99.90;;;;;;4935583;29;20283;-70
2022/10/21 12:26:05;;;;;;;7.70;7.00;;;19.20;99.90;;;;;;4946812;29;20319;-70
2022/10/21 12:28:30;;;;;;;10.27;7.87;;;19.20;99.90;;;;;;4938149;29;20214;-72
2022/10/21 12:31:26;;;;;;;10.53;8.10;;;19.30;99.90;;;;;;4939667;29;20188;-69
2022/10/21 12:33:52;;;;;;;11.37;8.07;;;19.30;99.90;;;;;;4936922;29;20271;-69
2022/10/21 12:36:24;;;;;;;9.50;8.50;;;19.30;99.90;;;;;;4939334;29;20219;-69
2022/10/21 12:38:58;;;;;;;9.07;8.27;;;19.20;99.90;;;;;;4938058;29;20286;-68
2022/10/21 12:41:23;;;;;;;10.47;8.13;;;19.10;99.90;;;;;;4940777;29;20732;-70
2022/10/21 12:44:16;;;;;;;11.57;8.27;;;19.00;99.90;;;;;;4936266;29;20351;-70
2022/10/21 12:46:44;;;;;;;10.67;8.60;;;18.80;99.90;;;;;;4936393;28;20219;-70
2022/10/21 12:49:31;;;;;;;9.30;8.40;;;18.60;99.90;;;;;;4937069;29;20219;-77
2022/10/21 12:52:20;;;;;;;13.20;8.67;;;18.50;99.90;;;;;;4933809;29;20222;-73
2022/10/21 12:54:45;;;;;;;8.80;7.30;;;18.40;99.90;;;;;;4937806;29;20226;-70
2022/10/21 12:57:32;;;;;;;12.67;8.33;;;18.30;99.90;;;;;;4938442;28;20669;-70
2022/10/21 13:00:42;;;;;;;9.50;7.70;;;18.30;99.90;;;;;;4939286;29;20210;-71
2022/10/21 13:03:18;;;;;;;9.43;8.43;;;18.10;99.90;;;;;;4934236;29;20192;-71
2022/10/21 13:05:46;;;;;;;8.10;7.30;;;17.90;99.90;;;;;;4946249;29;20202;-72
2022/10/21 13:08:26;;;;;;;8.70;7.80;;;17.70;99.90;;;;;;4933973;29;20214;-85